Time;durP1;ratioP1;P1;durP2;ratioP2;P2;SDS_P1;SDS_P2;PMS_P1;PMS_P2;Temp;Humidity;BMP_temperature;BMP_pressure;BME280_temperature;BME280_humidity;BME280_pressure;Samples;Min_cycle;Max_cycle;Signal;HPM_P1;HPM_P2
2023/06/26 00:01:29;;;;;;;0.10;0.10;;;;;;;;;;5109491;28;20415;-51
2023/06/26 00:03:55;;;;;;;0.10;0.10;;;;;;;;;;5109888;28;20086;-52
2023/06/26 00:06:24;;;;;;;0.10;0.10;;;;;;;;;;5107435;28;20063;-52
2023/06/26 00:08:50;;;;;;;0.10;0.10;;;;;;;;;;5108061;28;20071;-51
2023/06/26 00:11:15;;;;;;;0.10;0.10;;;;;;;;;;5108963;28;20156;-52
2023/06/26 00:13:41;;;;;;;0.10;0.10;;;;;;;;;;5108247;28;20052;-52
2023/06/26 00:16:07;;;;;;;0.10;0.10;;;;;;;;;;5108390;28;20051;-52
2023/06/26 00:18:32;;;;;;;0.10;0.10;;;;;;;;;;5108871;28;20487;-52
2023/06/26 00:20:58;;;;;;;0.10;0.10;;;;;;;;;;5108611;28;20043;-53
2023/06/26 00:23:23;;;;;;;0.10;0.10;;;;;;;;;;5109134;28;20484;-51
2023/06/26 00:25:49;;;;;;;0.10;0.10;;;;;;;;;;5108634;28;20047;-51
2023/06/26 00:28:14;;;;;;;0.10;0.10;;;;;;;;;;5108433;28;20079;-53
2023/06/26 00:30:40;;;;;;;0.10;0.10;;;;;;;;;;5108576;28;20086;-51
2023/06/26 00:33:06;;;;;;;0.10;0.10;;;;;;;;;;5109009;28;20047;-51
2023/06/26 00:35:31;;;;;;;0.10;0.10;;;;;;;;;;5108785;28;20061;-53
2023/06/26 00:37:57;;;;;;;0.10;0.10;;;;;;;;;;5109092;28;20051;-51
2023/06/26 00:40:22;;;;;;;0.10;0.10;;;;;;;;;;5108191;28;20044;-51
2023/06/26 00:42:50;;;;;;;0.10;0.10;;;;;;;;;;5108680;28;20069;-51
2023/06/26 00:45:15;;;;;;;0.10;0.10;;;;;;;;;;5108538;28;20097;-53
2023/06/26 00:47:43;;;;;;;0.10;0.10;;;;;;;;;;5108021;28;20043;-52
2023/06/26 00:50:08;;;;;;;0.10;0.10;;;;;;;;;;5108592;28;20495;-52
2023/06/26 00:52:34;;;;;;;0.10;0.10;;;;;;;;;;5108942;28;20054;-52
2023/06/26 00:55:00;;;;;;;0.10;0.10;;;;;;;;;;5109094;28;20079;-50
2023/06/26 00:57:25;;;;;;;0.10;0.10;;;;;;;;;;5108864;28;20050;-51
2023/06/26 00:59:51;;;;;;;0.10;0.10;;;;;;;;;;5107456;28;20079;-52
2023/06/26 01:02:19;;;;;;;0.10;0.10;;;;;;;;;;5108554;28;20407;-52
2023/06/26 01:04:47;;;;;;;0.10;0.10;;;;;;;;;;5109053;28;20040;-52
2023/06/26 01:07:13;;;;;;;0.10;0.10;;;;;;;;;;5108220;28;20056;-50
2023/06/26 01:09:39;;;;;;;0.10;0.10;;;;;;;;;;5107102;28;20104;-52
2023/06/26 01:12:04;;;;;;;0.10;0.10;;;;;;;;;;5108562;28;20055;-51
2023/06/26 01:14:30;;;;;;;0.10;0.10;;;;;;;;;;5108337;28;20043;-52
2023/06/26 01:16:57;;;;;;;0.10;0.10;;;;;;;;;;5108633;28;20066;-52
2023/06/26 01:19:25;;;;;;;0.10;0.10;;;;;;;;;;5107592;28;20430;-52
2023/06/26 01:21:56;;;;;;;0.10;0.10;;;;;;;;;;5089361;28;20813;-52
2023/06/26 01:24:27;;;;;;;0.10;0.10;;;;;;;;;;5108195;28;20503;-52
2023/06/26 01:26:53;;;;;;;0.10;0.10;;;;;;;;;;5108218;28;20051;-51
2023/06/26 01:29:20;;;;;;;0.10;0.10;;;;;;;;;;5107936;28;20244;-51
2023/06/26 01:31:48;;;;;;;0.10;0.10;;;;;;;;;;5108311;28;20074;-52
2023/06/26 01:34:13;;;;;;;;;;;;;;;;;;5109660;28;20063;-52
2023/06/26 01:36:39;;;;;;;0.10;0.10;;;;;;;;;;5108176;28;20391;-52
2023/06/26 01:39:04;;;;;;;0.10;0.10;;;;;;;;;;5107995;28;20062;-52
2023/06/26 01:41:30;;;;;;;0.10;0.10;;;;;;;;;;5107695;28;20039;-53
2023/06/26 01:44:01;;;;;;;0.10;0.10;;;;;;;;;;5107777;28;20055;-52
2023/06/26 01:46:33;;;;;;;0.10;0.10;;;;;;;;;;5108290;28;20437;-52
2023/06/26 01:49:21;;;;;;;0.10;0.10;;;;;;;;;;5108163;28;20054;-52
2023/06/26 01:51:50;;;;;;;0.10;0.10;;;;;;;;;;5094145;28;20507;-52
2023/06/26 01:54:18;;;;;;;0.10;0.10;;;;;;;;;;5108003;28;20059;-51
2023/06/26 01:56:44;;;;;;;0.10;0.10;;;;;;;;;;5090114;28;20479;-52
2023/06/26 01:59:11;;;;;;;0.10;0.10;;;;;;;;;;5088811;28;20051;-52
2023/06/26 02:01:37;;;;;;;0.10;0.10;;;;;;;;;;5107158;28;20046;-52
2023/06/26 02:04:02;;;;;;;0.10;0.10;;;;;;;;;;5108517;28;20040;-52
2023/06/26 02:06:28;;;;;;;0.10;0.10;;;;;;;;;;5108045;28;20043;-51
2023/06/26 02:08:56;;;;;;;0.10;0.10;;;;;;;;;;5106963;28;20046;-53
2023/06/26 02:11:21;;;;;;;;;;;;;;;;;;5107870;28;20078;-52
2023/06/26 02:13:47;;;;;;;0.10;0.10;;;;;;;;;;5107406;28;19998;-52
2023/06/26 02:16:12;;;;;;;0.10;0.10;;;;;;;;;;5107096;28;20048;-52
2023/06/26 02:18:38;;;;;;;0.10;0.10;;;;;;;;;;5107377;28;20069;-52
2023/06/26 02:21:04;;;;;;;0.10;0.10;;;;;;;;;;5106349;28;20071;-52
2023/06/26 02:23:29;;;;;;;0.10;0.10;;;;;;;;;;5106933;28;20055;-51
2023/06/26 02:25:55;;;;;;;0.10;0.10;;;;;;;;;;5107014;28;20563;-52
2023/06/26 02:28:20;;;;;;;0.10;0.10;;;;;;;;;;5106815;28;20074;-53
2023/06/26 02:30:46;;;;;;;0.10;0.10;;;;;;;;;;5106163;28;20047;-53
2023/06/26 02:33:11;;;;;;;0.10;0.10;;;;;;;;;;5107407;28;20048;-51
2023/06/26 02:35:37;;;;;;;0.10;0.10;;;;;;;;;;5107288;28;20062;-52
2023/06/26 02:38:03;;;;;;;0.22;0.22;;;;;;;;;;5106518;28;20044;-51
2023/06/26 02:40:28;;;;;;;0.10;0.10;;;;;;;;;;5106505;28;20051;-52
2023/06/26 02:42:53;;;;;;;0.20;0.20;;;;;;;;;;5107179;28;20051;-52
2023/06/26 02:45:19;;;;;;;0.10;0.10;;;;;;;;;;5107173;28;20067;-52
2023/06/26 02:47:45;;;;;;;0.10;0.10;;;;;;;;;;5106823;28;20067;-51
2023/06/26 02:50:10;;;;;;;0.10;0.10;;;;;;;;;;5106915;28;20336;-52
2023/06/26 02:52:36;;;;;;;0.10;0.10;;;;;;;;;;5106801;28;20135;-52
2023/06/26 02:55:01;;;;;;;0.10;0.10;;;;;;;;;;5107557;28;20487;-52
2023/06/26 02:57:27;;;;;;;0.10;0.10;;;;;;;;;;5107404;28;20047;-52
2023/06/26 02:59:52;;;;;;;0.10;0.10;;;;;;;;;;5106435;28;20055;-52
2023/06/26 03:02:18;;;;;;;0.10;0.10;;;;;;;;;;5107077;28;20047;-53
2023/06/26 03:04:43;;;;;;;0.10;0.10;;;;;;;;;;5107516;28;20051;-52
2023/06/26 03:07:09;;;;;;;0.10;0.10;;;;;;;;;;5107251;27;20047;-51
2023/06/26 03:09:34;;;;;;;0.10;0.10;;;;;;;;;;5123755;27;20058;-53
2023/06/26 03:12:00;;;;;;;0.10;0.10;;;;;;;;;;5111098;28;20039;-52
2023/06/26 03:14:26;;;;;;;0.10;0.10;;;;;;;;;;5110998;28;20419;-51
2023/06/26 03:16:52;;;;;;;0.10;0.10;;;;;;;;;;5111351;28;20499;-52
2023/06/26 03:19:18;;;;;;;0.10;0.10;;;;;;;;;;5110862;28;20088;-52
2023/06/26 03:21:43;;;;;;;0.10;0.10;;;;;;;;;;5108596;28;20064;-52
2023/06/26 03:24:09;;;;;;;0.20;0.20;;;;;;;;;;5090165;28;20075;-51
2023/06/26 03:26:34;;;;;;;0.10;0.10;;;;;;;;;;5090493;28;20592;-51
2023/06/26 03:29:00;;;;;;;0.10;0.10;;;;;;;;;;5089987;28;20442;-53
2023/06/26 03:31:26;;;;;;;0.10;0.10;;;;;;;;;;5105622;28;20043;-52
2023/06/26 03:33:51;;;;;;;0.10;0.10;;;;;;;;;;5110003;28;20058;-52
2023/06/26 03:36:17;;;;;;;0.10;0.10;;;;;;;;;;5110542;28;20051;-52
2023/06/26 03:38:42;;;;;;;0.10;0.10;;;;;;;;;;5109999;28;20051;-51
2023/06/26 03:41:08;;;;;;;0.10;0.10;;;;;;;;;;5109284;28;20043;-52
2023/06/26 03:43:33;;;;;;;0.10;0.10;;;;;;;;;;5110246;28;20170;-53
2023/06/26 03:45:59;;;;;;;0.10;0.10;;;;;;;;;;5110199;28;20138;-51
2023/06/26 03:48:24;;;;;;;0.10;0.10;;;;;;;;;;5109291;28;20049;-52
2023/06/26 03:50:50;;;;;;;0.10;0.10;;;;;;;;;;5109543;28;20043;-52
2023/06/26 03:53:16;;;;;;;0.10;0.10;;;;;;;;;;5110043;28;20051;-51
2023/06/26 03:55:41;;;;;;;0.10;0.10;;;;;;;;;;5110066;28;20059;-52
2023/06/26 03:58:07;;;;;;;0.10;0.10;;;;;;;;;;5109961;28;20439;-51
2023/06/26 04:00:32;;;;;;;0.10;0.10;;;;;;;;;;5109170;28;20048;-53
2023/06/26 04:02:58;;;;;;;0.10;0.10;;;;;;;;;;5109757;28;20544;-52
2023/06/26 04:05:24;;;;;;;0.10;0.10;;;;;;;;;;5109071;28;20055;-51
2023/06/26 04:07:50;;;;;;;0.10;0.10;;;;;;;;;;5117640;28;20111;-51
2023/06/26 04:10:15;;;;;;;0.17;0.17;;;;;;;;;;5108746;28;20067;-53
2023/06/26 04:12:41;;;;;;;0.10;0.10;;;;;;;;;;5109774;28;20083;-52
2023/06/26 04:15:07;;;;;;;0.10;0.10;;;;;;;;;;5109605;28;20048;-52
2023/06/26 04:17:32;;;;;;;0.20;0.20;;;;;;;;;;5110305;28;20067;-52
2023/06/26 04:19:58;;;;;;;0.10;0.10;;;;;;;;;;5109724;28;20063;-53
2023/06/26 04:22:23;;;;;;;0.10;0.10;;;;;;;;;;5108772;28;20044;-52
2023/06/26 04:24:49;;;;;;;0.10;0.10;;;;;;;;;;5109736;28;20061;-52
2023/06/26 04:27:14;;;;;;;0.10;0.10;;;;;;;;;;5109919;28;20460;-53
2023/06/26 04:29:40;;;;;;;0.10;0.10;;;;;;;;;;5109290;28;20407;-52
2023/06/26 04:32:06;;;;;;;0.10;0.10;;;;;;;;;;5109955;28;20055;-52
2023/06/26 04:34:33;;;;;;;0.10;0.10;;;;;;;;;;5109404;28;20124;-52
2023/06/26 04:36:59;;;;;;;0.10;0.10;;;;;;;;;;5109282;28;20497;-52
2023/06/26 04:39:24;;;;;;;0.10;0.10;;;;;;;;;;5109294;28;20092;-51
2023/06/26 04:41:50;;;;;;;0.10;0.10;;;;;;;;;;5108703;28;20079;-52
2023/06/26 04:44:15;;;;;;;0.10;0.10;;;;;;;;;;5109622;28;20079;-52
2023/06/26 04:46:41;;;;;;;0.10;0.10;;;;;;;;;;5109788;28;20050;-52
2023/06/26 04:49:07;;;;;;;0.10;0.10;;;;;;;;;;5108706;28;20062;-53
2023/06/26 04:51:33;;;;;;;0.10;0.10;;;;;;;;;;5109307;28;20086;-53
2023/06/26 04:53:58;;;;;;;0.10;0.10;;;;;;;;;;5109454;28;20078;-51
2023/06/26 04:56:24;;;;;;;0.10;0.10;;;;;;;;;;5108922;28;20055;-53
2023/06/26 04:58:49;;;;;;;0.10;0.10;;;;;;;;;;5108782;28;20438;-52
2023/06/26 05:01:15;;;;;;;0.10;0.10;;;;;;;;;;5108242;28;20051;-52
2023/06/26 05:03:41;;;;;;;0.10;0.10;;;;;;;;;;5108799;28;20239;-53
2023/06/26 05:06:06;;;;;;;0.10;0.10;;;;;;;;;;5108116;28;20052;-51
2023/06/26 05:08:35;;;;;;;0.10;0.10;;;;;;;;;;5108433;28;20410;-53
2023/06/26 05:11:00;;;;;;;0.10;0.10;;;;;;;;;;5107685;28;20087;-51
2023/06/26 05:13:26;;;;;;;0.10;0.10;;;;;;;;;;5108702;28;20047;-52
2023/06/26 05:15:52;;;;;;;0.10;0.10;;;;;;;;;;5108572;28;20047;-52
2023/06/26 05:18:18;;;;;;;0.10;0.10;;;;;;;;;;5090259;28;20073;-52
2023/06/26 05:20:43;;;;;;;0.10;0.10;;;;;;;;;;5089682;28;20047;-52
2023/06/26 05:23:11;;;;;;;0.10;0.10;;;;;;;;;;5107926;28;20413;-52
2023/06/26 05:25:36;;;;;;;0.10;0.10;;;;;;;;;;5107920;28;20484;-52
2023/06/26 05:28:04;;;;;;;0.10;0.10;;;;;;;;;;5108118;28;20063;-52
2023/06/26 05:30:31;;;;;;;0.10;0.10;;;;;;;;;;5107913;28;20079;-52
2023/06/26 05:32:58;;;;;;;0.10;0.10;;;;;;;;;;5108321;28;20051;-52
2023/06/26 05:35:24;;;;;;;0.10;0.10;;;;;;;;;;5108109;28;20056;-51
2023/06/26 05:37:50;;;;;;;0.10;0.10;;;;;;;;;;5107961;28;20373;-52
2023/06/26 05:40:17;;;;;;;0.10;0.10;;;;;;;;;;5107938;28;20506;-53
2023/06/26 05:42:43;;;;;;;0.10;0.10;;;;;;;;;;5089937;28;20569;-50
2023/06/26 05:45:09;;;;;;;0.10;0.10;;;;;;;;;;5107799;28;20079;-52
2023/06/26 05:47:35;;;;;;;0.10;0.10;;;;;;;;;;5108794;28;20546;-52
2023/06/26 05:50:01;;;;;;;0.10;0.10;;;;;;;;;;5107369;28;20142;-53
2023/06/26 05:52:27;;;;;;;0.10;0.10;;;;;;;;;;5091751;28;20044;-53
2023/06/26 05:54:52;;;;;;;0.10;0.10;;;;;;;;;;5108574;28;20124;-53
2023/06/26 05:57:18;;;;;;;0.10;0.10;;;;;;;;;;5108705;28;20134;-53
2023/06/26 05:59:44;;;;;;;0.10;0.10;;;;;;;;;;5107758;28;20666;-51
2023/06/26 06:02:11;;;;;;;0.10;0.10;;;;;;;;;;5108382;28;20048;-53
2023/06/26 06:04:37;;;;;;;0.10;0.10;;;;;;;;;;5108428;28;20051;-51
2023/06/26 06:07:03;;;;;;;0.10;0.10;;;;;;;;;;5120284;28;20074;-52
2023/06/26 06:09:28;;;;;;;0.10;0.10;;;;;;;;;;5107273;28;20052;-52
2023/06/26 06:11:54;;;;;;;0.10;0.10;;;;;;;;;;5107707;28;20051;-53
2023/06/26 06:14:20;;;;;;;0.10;0.10;;;;;;;;;;5108349;28;20070;-53
2023/06/26 06:16:46;;;;;;;0.10;0.10;;;;;;;;;;5107906;28;20051;-52
2023/06/26 06:19:13;;;;;;;0.10;0.10;;;;;;;;;;5108055;28;20408;-50
2023/06/26 06:21:38;;;;;;;0.10;0.10;;;;;;;;;;5107503;28;20079;-52
2023/06/26 06:24:04;;;;;;;0.10;0.10;;;;;;;;;;5107780;28;20131;-51
2023/06/26 06:26:30;;;;;;;0.10;0.10;;;;;;;;;;5107424;28;20148;-53
2023/06/26 06:28:55;;;;;;;0.10;0.10;;;;;;;;;;5106831;28;20044;-52
2023/06/26 06:31:21;;;;;;;0.10;0.10;;;;;;;;;;5106863;28;20050;-51
2023/06/26 06:33:46;;;;;;;0.10;0.10;;;;;;;;;;5107396;28;20064;-53
2023/06/26 06:36:12;;;;;;;0.10;0.10;;;;;;;;;;5107669;28;20056;-53
2023/06/26 06:38:37;;;;;;;0.10;0.10;;;;;;;;;;5106715;28;20044;-52
2023/06/26 06:41:03;;;;;;;0.10;0.10;;;;;;;;;;5107030;28;20468;-52
2023/06/26 06:43:28;;;;;;;0.10;0.10;;;;;;;;;;5106948;28;20070;-52
2023/06/26 06:45:54;;;;;;;0.10;0.10;;;;;;;;;;5106168;28;20514;-53
2023/06/26 06:48:19;;;;;;;0.10;0.10;;;;;;;;;;5106904;28;20044;-51
2023/06/26 06:50:45;;;;;;;0.10;0.10;;;;;;;;;;5106838;28;20471;-52
2023/06/26 06:53:10;;;;;;;0.10;0.10;;;;;;;;;;5106238;28;20499;-53
2023/06/26 06:55:36;;;;;;;0.10;0.10;;;;;;;;;;5106406;28;20428;-52
2023/06/26 07:03:10;;;;;;;0.10;0.10;;;;;;;;;;4984161;28;20406;-46
2023/06/26 07:05:36;;;;;;;0.10;0.10;;;;;;;;;;4979566;28;20047;-51
2023/06/26 07:08:02;;;;;;;0.10;0.10;;;;;;;;;;4968165;28;20055;-47
2023/06/26 07:10:28;;;;;;;0.13;0.13;;;;;;;;;;4981592;28;20054;-51
2023/06/26 07:12:53;;;;;;;0.10;0.10;;;;;;;;;;4999653;28;20157;-51
2023/06/26 07:15:19;;;;;;;0.10;0.10;;;;;;;;;;4983939;28;20046;-51
2023/06/26 07:17:45;;;;;;;0.10;0.10;;;;;;;;;;4978439;28;20101;-50
2023/06/26 07:20:15;;;;;;;0.10;0.10;;;;;;;;;;4983502;28;20054;-51
2023/06/26 07:22:41;;;;;;;0.10;0.10;;;;;;;;;;4987570;28;20043;-50
2023/06/26 07:25:09;;;;;;;0.10;0.10;;;;;;;;;;4986560;28;20089;-51
2023/06/26 07:27:35;;;;;;;0.10;0.10;;;;;;;;;;4987862;28;20100;-50
2023/06/26 07:30:00;;;;;;;0.10;0.10;;;;;;;;;;4985312;28;20399;-50
2023/06/26 07:32:26;;;;;;;0.10;0.10;;;;;;;;;;4987505;28;20064;-50
2023/06/26 07:34:52;;;;;;;0.10;0.10;;;;;;;;;;4987280;28;20055;-50
2023/06/26 07:37:17;;;;;;;0.10;0.10;;;;;;;;;;4987603;28;20057;-51
2023/06/26 07:39:43;;;;;;;0.10;0.10;;;;;;;;;;4986067;28;20047;-51
2023/06/26 07:42:08;;;;;;;0.10;0.10;;;;;;;;;;4987441;28;20050;-50
2023/06/26 07:44:34;;;;;;;0.10;0.10;;;;;;;;;;4987537;28;20228;-51
2023/06/26 07:46:59;;;;;;;0.10;0.10;;;;;;;;;;4985545;28;20054;-50
2023/06/26 07:49:25;;;;;;;0.10;0.10;;;;;;;;;;4987191;28;20050;-50
2023/06/26 07:51:50;;;;;;;0.10;0.10;;;;;;;;;;4987282;28;20057;-51
2023/06/26 07:54:16;;;;;;;0.10;0.10;;;;;;;;;;4985063;28;20061;-50
2023/06/26 07:56:57;;;;;;;0.10;0.10;;;;;;;;;;4988345;28;20050;-50
2023/06/26 07:59:24;;;;;;;0.10;0.10;;;;;;;;;;4989031;28;20054;-50
2023/06/26 08:01:50;;;;;;;0.10;0.10;;;;;;;;;;4990200;28;20050;-50
2023/06/26 08:04:17;;;;;;;0.10;0.10;;;;;;;;;;4987388;28;20109;-51
2023/06/26 08:06:43;;;;;;;0.10;0.10;;;;;;;;;;4988958;28;20093;-50
2023/06/26 08:09:09;;;;;;;0.10;0.10;;;;;;;;;;4989550;28;20513;-51
2023/06/26 08:11:34;;;;;;;0.10;0.10;;;;;;;;;;4989833;28;20050;-50
2023/06/26 08:14:00;;;;;;;0.10;0.10;;;;;;;;;;4989947;28;20514;-50
2023/06/26 08:16:25;;;;;;;0.10;0.10;;;;;;;;;;4990036;28;20116;-51
2023/06/26 08:18:51;;;;;;;0.10;0.10;;;;;;;;;;4990228;28;20050;-52
2023/06/26 08:21:16;;;;;;;0.10;0.10;;;;;;;;;;4989840;28;20046;-51
2023/06/26 08:23:42;;;;;;;0.10;0.10;;;;;;;;;;4990447;28;20105;-51
2023/06/26 08:26:07;;;;;;;0.10;0.10;;;;;;;;;;4990432;28;20050;-50
2023/06/26 08:28:33;;;;;;;0.10;0.10;;;;;;;;;;4989926;28;20130;-49
2023/06/26 08:30:59;;;;;;;0.10;0.10;;;;;;;;;;4988362;28;20048;-51
2023/06/26 08:33:25;;;;;;;0.10;0.10;;;;;;;;;;4990065;28;20097;-51
2023/06/26 08:35:50;;;;;;;0.10;0.10;;;;;;;;;;4989982;28;20046;-51
2023/06/26 08:38:16;;;;;;;0.10;0.10;;;;;;;;;;4989655;28;20082;-51
2023/06/26 08:40:46;;;;;;;0.10;0.10;;;;;;;;;;4989047;28;20065;-50
2023/06/26 08:43:11;;;;;;;0.10;0.10;;;;;;;;;;4989656;28;20149;-50
2023/06/26 08:45:37;;;;;;;0.10;0.10;;;;;;;;;;4989930;28;20051;-51
2023/06/26 08:48:03;;;;;;;0.10;0.10;;;;;;;;;;4989755;28;20092;-50
2023/06/26 08:50:30;;;;;;;0.10;0.10;;;;;;;;;;4987996;28;20081;-50
2023/06/26 08:52:58;;;;;;;0.10;0.10;;;;;;;;;;4988662;28;20152;-50
2023/06/26 08:55:25;;;;;;;0.10;0.10;;;;;;;;;;4990191;28;20125;-51
2023/06/26 08:57:51;;;;;;;0.10;0.10;;;;;;;;;;4989410;28;20054;-51
2023/06/26 09:00:17;;;;;;;0.10;0.10;;;;;;;;;;4989149;28;20438;-51
2023/06/26 09:02:43;;;;;;;0.10;0.10;;;;;;;;;;4987617;28;20661;-50
2023/06/26 09:05:11;;;;;;;0.08;0.08;;;;;;;;;;4983350;28;20133;-48
2023/06/26 09:07:37;;;;;;;0.10;0.10;;;;;;;;;;4987918;28;20055;-46
2023/06/26 09:10:02;;;;;;;0.15;0.10;;;;;;;;;;4988652;28;20085;-50
2023/06/26 09:12:28;;;;;;;0.10;0.10;;;;;;;;;;4989518;28;20050;-50
2023/06/26 09:14:55;;;;;;;0.10;0.10;;;;;;;;;;4989553;28;20293;-53
2023/06/26 09:17:24;;;;;;;0.10;0.10;;;;;;;;;;4989479;28;20046;-51
2023/06/26 09:19:50;;;;;;;0.10;0.10;;;;;;;;;;4988798;28;20681;-52
2023/06/26 09:22:15;;;;;;;0.10;0.10;;;;;;;;;;4989020;28;20058;-52
2023/06/26 09:24:42;;;;;;;0.10;0.10;;;;;;;;;;4989198;28;20046;-51
2023/06/26 09:27:07;;;;;;;0.30;0.30;;;;;;;;;;4989492;28;20050;-52
2023/06/26 09:29:33;;;;;;;0.10;0.10;;;;;;;;;;4987880;28;20521;-51
2023/06/26 09:31:59;;;;;;;0.10;0.10;;;;;;;;;;4988169;28;20050;-51
2023/06/26 09:34:32;;;;;;;0.10;0.10;;;;;;;;;;4987458;28;20108;-51
2023/06/26 09:36:58;;;;;;;0.10;0.10;;;;;;;;;;4987226;28;20458;-50
2023/06/26 09:39:24;;;;;;;0.10;0.10;;;;;;;;;;4986977;28;20054;-50
2023/06/26 09:41:49;;;;;;;0.10;0.10;;;;;;;;;;4988158;28;20567;-52
2023/06/26 09:44:15;;;;;;;0.10;0.10;;;;;;;;;;4988004;28;20400;-51
2023/06/26 09:46:41;;;;;;;0.10;0.10;;;;;;;;;;4988668;28;20076;-51
2023/06/26 09:49:07;;;;;;;0.10;0.10;;;;;;;;;;4988555;28;20056;-52
2023/06/26 09:51:33;;;;;;;0.10;0.10;;;;;;;;;;4987782;28;20050;-52
2023/06/26 09:54:00;;;;;;;0.10;0.10;;;;;;;;;;4988143;28;20077;-52
2023/06/26 09:56:26;;;;;;;0.10;0.10;;;;;;;;;;4988701;28;20450;-52
2023/06/26 09:58:52;;;;;;;0.10;0.10;;;;;;;;;;4986474;28;20498;-51
2023/06/26 10:01:18;;;;;;;0.20;0.20;;;;;;;;;;4986529;28;20058;-49
2023/06/26 10:03:44;;;;;;;0.10;0.10;;;;;;;;;;4988438;28;20125;-51
2023/06/26 10:06:11;;;;;;;0.10;0.10;;;;;;;;;;4988763;28;20054;-48
2023/06/26 10:08:37;;;;;;;0.10;0.10;;;;;;;;;;4986301;28;20054;-51
2023/06/26 10:11:03;;;;;;;0.10;0.10;;;;;;;;;;4988152;28;20070;-52
2023/06/26 10:13:31;;;;;;;0.10;0.10;;;;;;;;;;4988137;28;20396;-50
2023/06/26 10:15:59;;;;;;;0.10;0.10;;;;;;;;;;4988730;28;20047;-52
2023/06/26 10:18:24;;;;;;;;;;;;;;;;;;4986951;28;20050;-51
2023/06/26 10:20:52;;;;;;;0.10;0.10;;;;;;;;;;4987802;28;19969;-51
2023/06/26 10:23:18;;;;;;;0.10;0.10;;;;;;;;;;4988584;28;20050;-49
2023/06/26 10:25:45;;;;;;;0.10;0.10;;;;;;;;;;4988881;28;20069;-50
2023/06/26 10:28:12;;;;;;;0.10;0.10;;;;;;;;;;4986958;28;20136;-50
2023/06/26 10:30:38;;;;;;;0.10;0.10;;;;;;;;;;4987722;28;20507;-51
2023/06/26 10:33:05;;;;;;;0.10;0.10;;;;;;;;;;4986459;28;20057;-50
2023/06/26 10:35:31;;;;;;;0.10;0.10;;;;;;;;;;4987934;28;20483;-49
2023/06/26 10:38:01;;;;;;;0.10;0.10;;;;;;;;;;4988569;28;20061;-50
2023/06/26 10:40:39;;;;;;;0.15;0.15;;;;;;;;;;4987665;28;20054;-51
2023/06/26 10:43:08;;;;;;;0.10;0.10;;;;;;;;;;4987841;28;20509;-51
2023/06/26 10:45:34;;;;;;;0.10;0.10;;;;;;;;;;4986261;28;20057;-50
2023/06/26 10:47:59;;;;;;;0.10;0.10;;;;;;;;;;4988233;28;20496;-50
2023/06/26 10:50:26;;;;;;;0.10;0.10;;;;;;;;;;4987546;28;20054;-50
2023/06/26 10:53:07;;;;;;;0.10;0.10;;;;;;;;;;4987842;28;20054;-50
2023/06/26 10:55:32;;;;;;;0.10;0.10;;;;;;;;;;4986866;28;20054;-50
2023/06/26 10:57:58;;;;;;;0.10;0.10;;;;;;;;;;4988002;28;20145;-50
2023/06/26 11:00:23;;;;;;;0.10;0.10;;;;;;;;;;4986752;28;20497;-50
2023/06/26 11:02:50;;;;;;;0.10;0.10;;;;;;;;;;4986007;28;20558;-50
2023/06/26 11:05:25;;;;;;;0.10;0.10;;;;;;;;;;4968905;28;20145;-51
2023/06/26 11:08:07;;;;;;;0.10;0.10;;;;;;;;;;4968897;28;20043;-50
2023/06/26 11:10:49;;;;;;;0.10;0.10;;;;;;;;;;4975295;28;20085;-50
2023/06/26 11:13:17;;;;;;;0.10;0.10;;;;;;;;;;4986933;28;20051;-50
2023/06/26 11:15:43;;;;;;;0.10;0.10;;;;;;;;;;4987199;28;20486;-50
2023/06/26 11:18:09;;;;;;;0.10;0.10;;;;;;;;;;4986734;28;20322;-50
2023/06/26 11:20:35;;;;;;;0.10;0.10;;;;;;;;;;4987498;28;20505;-49
2023/06/26 11:23:03;;;;;;;0.10;0.10;;;;;;;;;;4986243;28;20050;-50
2023/06/26 11:25:29;;;;;;;0.10;0.10;;;;;;;;;;4988107;28;20061;-50
2023/06/26 11:27:55;;;;;;;0.10;0.10;;;;;;;;;;4987784;28;20054;-51
2023/06/26 11:30:24;;;;;;;0.10;0.10;;;;;;;;;;4988502;28;20085;-50
2023/06/26 11:32:49;;;;;;;0.10;0.10;;;;;;;;;;4991265;28;20042;-51
2023/06/26 11:35:29;;;;;;;0.10;0.10;;;;;;;;;;4989813;28;20054;-50
2023/06/26 11:37:56;;;;;;;0.10;0.10;;;;;;;;;;4991513;28;20446;-50
2023/06/26 11:40:26;;;;;;;0.10;0.10;;;;;;;;;;4990653;28;20438;-50
2023/06/26 11:42:53;;;;;;;0.10;0.10;;;;;;;;;;4989892;28;20088;-50
2023/06/26 11:45:19;;;;;;;0.10;0.10;;;;;;;;;;4991347;28;20108;-50
2023/06/26 11:47:45;;;;;;;0.10;0.10;;;;;;;;;;4990359;28;20117;-49
2023/06/26 11:50:16;;;;;;;0.10;0.10;;;;;;;;;;4990830;28;20046;-51
2023/06/26 11:52:42;;;;;;;0.10;0.10;;;;;;;;;;4991430;28;20069;-50
2023/06/26 11:55:08;;;;;;;0.10;0.10;;;;;;;;;;4990892;28;20136;-50
2023/06/26 11:57:33;;;;;;;0.10;0.10;;;;;;;;;;4991189;28;20062;-51
2023/06/26 12:00:09;;;;;;;0.10;0.10;;;;;;;;;;4990781;28;20505;-50
2023/06/26 12:02:35;;;;;;;0.10;0.10;;;;;;;;;;4990154;28;20058;-49
2023/06/26 12:05:01;;;;;;;0.10;0.10;;;;;;;;;;4990661;28;20047;-50
2023/06/26 12:07:26;;;;;;;0.10;0.10;;;;;;;;;;4990675;28;20483;-50
2023/06/26 12:09:53;;;;;;;0.10;0.10;;;;;;;;;;4990225;28;20396;-50
2023/06/26 12:12:19;;;;;;;0.10;0.10;;;;;;;;;;4990811;28;20479;-51
2023/06/26 12:14:44;;;;;;;0.10;0.10;;;;;;;;;;4990853;28;20065;-50
2023/06/26 12:17:11;;;;;;;0.10;0.10;;;;;;;;;;4990818;28;20096;-50
2023/06/26 12:19:37;;;;;;;0.10;0.10;;;;;;;;;;4990478;28;20487;-51
2023/06/26 12:22:06;;;;;;;0.10;0.10;;;;;;;;;;4990306;28;20073;-50
2023/06/26 12:24:31;;;;;;;0.10;0.10;;;;;;;;;;4990848;28;20059;-50
2023/06/26 12:26:57;;;;;;;0.10;0.10;;;;;;;;;;4989644;28;20054;-50
2023/06/26 12:29:39;;;;;;;0.10;0.10;;;;;;;;;;4990549;28;20073;-50
2023/06/26 12:32:07;;;;;;;0.10;0.10;;;;;;;;;;4990465;28;20070;-51
2023/06/26 12:34:34;;;;;;;0.10;0.10;;;;;;;;;;4990662;28;20154;-50
2023/06/26 12:37:01;;;;;;;0.10;0.10;;;;;;;;;;4990171;28;20062;-50
2023/06/26 12:39:27;;;;;;;0.10;0.10;;;;;;;;;;4988569;28;20434;-50
2023/06/26 12:41:54;;;;;;;0.10;0.10;;;;;;;;;;4989299;28;20502;-50
2023/06/26 12:44:27;;;;;;;0.10;0.10;;;;;;;;;;4988829;28;20509;-48
2023/06/26 12:46:54;;;;;;;0.10;0.10;;;;;;;;;;4989447;28;20136;-50
2023/06/26 12:49:21;;;;;;;0.10;0.10;;;;;;;;;;4989752;28;20046;-49
2023/06/26 12:51:58;;;;;;;0.05;0.05;;;;;;;;;;4990104;28;20090;-50
2023/06/26 12:54:24;;;;;;;0.10;0.10;;;;;;;;;;4990103;28;20501;-51
2023/06/26 12:56:49;;;;;;;0.10;0.10;;;;;;;;;;4989952;28;20050;-50
2023/06/26 12:59:15;;;;;;;0.10;0.10;;;;;;;;;;4990246;28;20054;-50
2023/06/26 13:01:40;;;;;;;0.10;0.10;;;;;;;;;;4986374;28;20045;-50
2023/06/26 13:04:06;;;;;;;0.10;0.10;;;;;;;;;;4988911;28;20115;-51
2023/06/26 13:06:31;;;;;;;0.10;0.10;;;;;;;;;;4985297;28;20050;-50
2023/06/26 13:08:58;;;;;;;0.10;0.10;;;;;;;;;;4985943;28;20391;-48
2023/06/26 13:11:23;;;;;;;0.10;0.10;;;;;;;;;;4984823;28;20054;-50
2023/06/26 13:13:51;;;;;;;;;;;;;;;;;;4988404;28;20089;-51
2023/06/26 13:16:34;;;;;;;0.10;0.10;;;;;;;;;;4990408;28;19957;-49
2023/06/26 13:19:01;;;;;;;0.10;0.10;;;;;;;;;;4990062;28;20449;-50
2023/06/26 13:21:27;;;;;;;0.10;0.10;;;;;;;;;;4989629;28;20050;-51
2023/06/26 13:23:52;;;;;;;0.10;0.10;;;;;;;;;;5003238;28;20057;-51
2023/06/26 13:26:19;;;;;;;0.10;0.10;;;;;;;;;;5009251;28;20053;-51
2023/06/26 13:29:01;;;;;;;0.10;0.10;;;;;;;;;;4988318;28;20571;-49
2023/06/26 13:31:27;;;;;;;0.10;0.10;;;;;;;;;;4989710;28;20046;-50
2023/06/26 13:33:53;;;;;;;0.10;0.10;;;;;;;;;;4989733;28;20427;-50
2023/06/26 13:36:19;;;;;;;0.10;0.10;;;;;;;;;;4989941;28;20042;-50
2023/06/26 13:38:44;;;;;;;0.10;0.10;;;;;;;;;;4988048;28;20050;-50
2023/06/26 13:41:10;;;;;;;0.10;0.10;;;;;;;;;;4987988;28;20577;-50
2023/06/26 13:43:35;;;;;;;0.10;0.10;;;;;;;;;;4989390;28;20541;-51
2023/06/26 13:46:02;;;;;;;0.10;0.10;;;;;;;;;;4989827;28;20080;-50
2023/06/26 13:48:28;;;;;;;0.10;0.10;;;;;;;;;;4989241;28;20140;-51
2023/06/26 13:50:53;;;;;;;0.20;0.13;;;;;;;;;;4988393;28;20046;-50
2023/06/26 13:53:20;;;;;;;0.10;0.10;;;;;;;;;;4988448;28;20509;-50
2023/06/26 13:55:45;;;;;;;0.17;0.17;;;;;;;;;;4989065;28;20086;-50
2023/06/26 13:58:13;;;;;;;0.10;0.10;;;;;;;;;;4988489;28;20058;-49
2023/06/26 14:00:38;;;;;;;0.10;0.10;;;;;;;;;;4987895;28;20136;-50
2023/06/26 14:03:06;;;;;;;0.10;0.10;;;;;;;;;;4988501;28;20097;-51
2023/06/26 14:05:33;;;;;;;0.10;0.10;;;;;;;;;;4988811;28;20057;-50
2023/06/26 14:08:02;;;;;;;0.10;0.10;;;;;;;;;;4989009;28;20093;-50
2023/06/26 14:10:27;;;;;;;0.10;0.10;;;;;;;;;;4988395;28;20054;-51
2023/06/26 14:12:53;;;;;;;0.30;0.30;;;;;;;;;;4988801;28;20050;-50
2023/06/26 14:15:18;;;;;;;0.10;0.10;;;;;;;;;;4988963;28;20519;-49
2023/06/26 14:17:44;;;;;;;0.10;0.10;;;;;;;;;;4988612;28;20054;-47
2023/06/26 14:20:12;;;;;;;0.10;0.10;;;;;;;;;;4988333;28;20144;-49
2023/06/26 14:22:39;;;;;;;0.10;0.10;;;;;;;;;;4988834;28;20065;-51
2023/06/26 14:25:05;;;;;;;0.10;0.10;;;;;;;;;;4988892;28;20093;-50
2023/06/26 14:27:31;;;;;;;0.10;0.10;;;;;;;;;;4989085;28;20668;-50
2023/06/26 14:29:56;;;;;;;0.10;0.10;;;;;;;;;;4988036;28;20089;-50
2023/06/26 14:32:22;;;;;;;0.10;0.10;;;;;;;;;;4988247;28;20545;-51
2023/06/26 14:34:47;;;;;;;0.20;0.20;;;;;;;;;;4988554;28;20054;-51
2023/06/26 14:37:13;;;;;;;0.10;0.10;;;;;;;;;;4988486;28;20050;-49
2023/06/26 14:39:39;;;;;;;0.10;0.10;;;;;;;;;;4987790;28;20046;-50
2023/06/26 14:42:05;;;;;;;0.10;0.10;;;;;;;;;;4988305;28;20054;-49
2023/06/26 14:44:31;;;;;;;0.10;0.10;;;;;;;;;;4988693;28;20054;-50